Time;durP1;ratioP1;P1;durP2;ratioP2;P2;SDS_P1;SDS_P2;PMS_P1;PMS_P2;Temp;Humidity;BMP_temperature;BMP_pressure;BME280_temperature;BME280_humidity;BME280_pressure;Samples;Min_cycle;Max_cycle;Signal;HPM_P1;HPM_P2
2022/11/27 00:01:18;;;;;;;28.00;13.10;;;;;;;2.49;99.93;101139.73;105737;1295;73666;-79
2022/11/27 00:04:07;;;;;;;27.50;13.60;;;;;;;2.50;99.97;101138.49;105691;1292;67594;-80
2022/11/27 00:06:56;;;;;;;30.40;14.10;;;;;;;2.50;99.93;101139.69;105723;1292;72767;-78
2022/11/27 00:09:43;;;;;;;27.70;13.80;;;;;;;2.52;99.80;101137.55;105712;1287;58535;-78
2022/11/27 00:12:31;;;;;;;28.00;12.90;;;;;;;2.52;99.80;101133.52;105876;1300;59541;-79
2022/11/27 00:15:19;;;;;;;27.00;13.30;;;;;;;2.50;99.78;101127.61;105873;1285;72425;-78
2022/11/27 00:18:06;;;;;;;31.10;14.00;;;;;;;2.50;99.89;101133.92;105886;1292;66847;-79
2022/11/27 00:20:54;;;;;;;28.90;13.10;;;;;;;2.51;99.95;101133.89;105841;1292;73923;-80
2022/11/27 00:23:42;;;;;;;27.70;13.20;;;;;;;2.51;99.93;101134.08;105838;1284;58026;-78
2022/11/27 00:26:31;;;;;;;27.80;12.00;;;;;;;2.51;99.98;101137.40;105717;1295;61344;-79
2022/11/27 00:29:27;;;;;;;24.50;11.80;;;;;;;2.51;99.93;101135.83;105858;1300;73763;-78
2022/11/27 00:32:15;;;;;;;29.00;12.10;;;;;;;2.50;99.91;101133.73;105757;1295;67825;-79
2022/11/27 00:35:03;;;;;;;27.20;12.20;;;;;;;2.51;99.98;101126.70;105871;1292;71547;-78
2022/11/27 00:37:51;;;;;;;23.70;10.80;;;;;;;2.53;100.00;101129.48;105838;1292;57962;-78
2022/11/27 00:40:38;;;;;;;24.90;13.20;;;;;;;2.51;99.97;101132.48;105858;1294;60512;-78
2022/11/27 00:43:26;;;;;;;25.50;12.30;;;;;;;2.50;100.00;101134.96;105776;1294;72202;-80
2022/11/27 00:46:21;;;;;;;27.10;11.40;;;;;;;2.48;99.95;101135.40;105740;1295;66271;-78
2022/11/27 00:49:14;;;;;;;27.70;11.40;;;;;;;2.45;99.99;101137.05;105676;1290;72606;-80
2022/11/27 00:52:02;;;;;;;25.20;11.10;;;;;;;2.43;100.00;101136.41;105865;1285;58007;-78
2022/11/27 00:54:50;;;;;;;25.20;11.40;;;;;;;2.43;100.00;101132.20;105873;1292;60116;-78
2022/11/27 00:57:39;;;;;;;25.60;10.10;;;;;;;2.41;99.98;101132.25;105905;1284;73517;-77
2022/11/27 01:00:26;;;;;;;24.10;11.20;;;;;;;2.40;100.00;101127.71;105730;1293;68614;-77
2022/11/27 01:03:14;;;;;;;22.90;10.50;;;;;;;2.41;99.99;101128.91;105870;1288;73944;-79
2022/11/27 01:06:06;;;;;;;22.30;10.40;;;;;;;2.43;100.00;101131.68;105857;1292;57894;-79
2022/11/27 01:08:53;;;;;;;22.30;10.20;;;;;;;2.41;100.00;101126.63;105719;1295;60393;-76
2022/11/27 01:11:41;;;;;;;20.30;9.00;;;;;;;2.42;100.00;101130.64;105780;1293;73573;-76
2022/11/27 01:14:29;;;;;;;22.10;9.60;;;;;;;2.42;100.00;101128.37;105861;1292;67626;-78
2022/11/27 01:17:17;;;;;;;24.40;9.70;;;;;;;2.42;100.00;101128.38;105859;1300;73684;-78
2022/11/27 01:20:06;;;;;;;19.80;9.40;;;;;;;2.41;100.00;101128.21;105854;1295;58492;-77
2022/11/27 01:22:53;;;;;;;19.70;9.00;;;;;;;2.42;100.00;101129.77;105862;1295;60120;-76
2022/11/27 01:25:41;;;;;;;23.10;9.90;;;;;;;2.44;100.00;101130.60;105890;1292;73826;-77
2022/11/27 01:28:30;;;;;;;23.80;9.30;;;;;;;2.45;99.99;101131.95;105877;1292;66883;-78
2022/11/27 01:31:22;;;;;;;21.90;9.30;;;;;;;2.47;100.00;101133.81;105718;1289;72469;-77
2022/11/27 01:34:16;;;;;;;18.30;8.40;;;;;;;2.49;100.00;101133.77;105852;1292;57943;-77
2022/11/27 01:37:04;;;;;;;18.40;7.90;;;;;;;2.50;100.00;101127.98;105872;1292;60166;-78
2022/11/27 01:39:52;;;;;;;17.80;7.30;;;;;;;2.51;100.00;101122.67;105862;1287;73516;-78
2022/11/27 01:42:39;;;;;;;18.70;7.50;;;;;;;2.55;100.00;101125.89;105875;1292;68715;-79
2022/11/27 01:45:27;;;;;;;20.50;9.30;;;;;;;2.58;100.00;101123.73;105880;1291;71595;-79
2022/11/27 01:48:15;;;;;;;18.10;7.80;;;;;;;2.60;100.00;101124.02;105850;1293;58487;-78
2022/11/27 01:51:03;;;;;;;18.90;7.30;;;;;;;2.60;100.00;101124.70;105894;1288;58645;-78
2022/11/27 01:53:52;;;;;;;16.20;6.10;;;;;;;2.59;100.00;101123.35;105733;1293;75052;-77
2022/11/27 01:56:44;;;;;;;14.20;6.30;;;;;;;2.57;100.00;101126.73;105734;1295;67687;-77
2022/11/27 01:59:33;;;;;;;16.00;6.60;;;;;;;2.58;100.00;101126.53;105745;1291;72798;-77
2022/11/27 02:02:20;;;;;;;17.00;7.00;;;;;;;2.59;100.00;101130.71;105744;1295;58532;-77
2022/11/27 02:05:15;;;;;;;14.80;6.20;;;;;;;2.58;100.00;101131.44;105748;1295;61587;-77
2022/11/27 02:08:13;;;;;;;13.10;8.10;;;;;;;2.56;100.00;101127.80;105747;1293;74026;-77
2022/11/27 02:11:52;;;;;;;14.10;5.60;;;;;;;2.54;100.00;101127.67;105532;1293;68038;-77
2022/11/27 02:15:13;;;;;;;13.70;6.10;;;;;;;2.51;100.00;101131.95;105860;1292;71562;-78
2022/11/27 02:18:12;;;;;;;15.80;6.60;;;;;;;2.49;100.00;101143.23;105758;1295;58778;-79
2022/11/27 02:21:00;;;;;;;17.50;7.10;;;;;;;2.45;100.00;101145.63;105873;1292;60195;-77
2022/11/27 02:24:14;;;;;;;14.00;6.30;;;;;;;2.41;100.00;101140.65;105878;1293;72570;-77
2022/11/27 02:27:11;;;;;;;17.00;7.50;;;;;;;2.40;100.00;101139.82;105780;1288;68216;-78
2022/11/27 02:30:01;;;;;;;16.20;6.50;;;;;;;2.39;100.00;101145.62;105738;1287;70764;-78
2022/11/27 02:32:57;;;;;;;16.00;6.70;;;;;;;2.39;100.00;101148.24;105848;1289;58800;-79
2022/11/27 02:36:03;;;;;;;14.10;5.90;;;;;;;2.41;100.00;101144.87;105764;1292;60463;-79
2022/11/27 02:39:09;;;;;;;16.00;6.20;;;;;;;2.41;100.00;101151.34;105757;1295;72378;-77
2022/11/27 02:42:35;;;;;;;17.30;7.50;;;;;;;2.41;100.00;101148.00;105621;1292;67814;-76
2022/11/27 02:45:30;;;;;;;15.80;6.60;;;;;;;2.44;100.00;101151.61;105222;1303;73551;-79
2022/11/27 02:48:23;;;;;;;16.90;7.10;;;;;;;2.45;100.00;101151.93;105224;1301;58835;-78
2022/11/27 02:51:13;;;;;;;16.30;7.70;;;;;;;2.47;100.00;101151.67;105237;1301;60253;-77
2022/11/27 02:54:06;;;;;;;15.10;6.50;;;;;;;2.51;100.00;101149.14;105230;1300;75090;-77
2022/11/27 02:56:56;;;;;;;16.30;6.70;;;;;;;2.53;100.00;101146.27;105254;1300;66484;-77
2022/11/27 02:59:44;;;;;;;17.80;8.40;;;;;;;2.55;100.00;101147.45;105207;1301;72655;-77
2022/11/27 03:02:40;;;;;;;16.50;7.50;;;;;;;2.56;100.00;101145.31;105213;1301;58065;-78
2022/11/27 03:05:33;;;;;;;22.40;9.90;;;;;;;2.56;100.00;101146.03;105239;1300;60130;-78
2022/11/27 03:08:44;;;;;;;17.90;8.00;;;;;;;2.54;100.00;101143.09;105239;1301;72478;-77
2022/11/27 03:11:32;;;;;;;22.30;8.70;;;;;;;2.55;100.00;101145.54;105276;1300;66587;-80
2022/11/27 03:14:23;;;;;;;25.10;8.80;;;;;;;2.55;100.00;101143.95;105211;1300;72600;-76
2022/11/27 03:17:33;;;;;;;20.70;9.00;;;;;;;2.57;100.00;101144.09;105213;1300;58047;-77
2022/11/27 03:20:35;;;;;;;20.70;9.50;;;;;;;2.59;100.00;101141.21;105327;1300;61673;-77
2022/11/27 03:23:23;;;;;;;21.60;9.10;;;;;;;2.61;100.00;101141.70;105787;1291;73859;-79
2022/11/27 03:26:11;;;;;;;20.50;8.50;;;;;;;2.63;100.00;101145.65;105886;1291;66524;-77
2022/11/27 03:29:01;;;;;;;20.80;9.10;;;;;;;2.66;100.00;101142.61;105901;1292;72375;-78
2022/11/27 03:31:50;;;;;;;21.60;8.40;;;;;;;2.65;100.00;101143.31;105752;1295;58195;-79
2022/11/27 03:34:38;;;;;;;19.80;9.40;;;;;;;2.65;100.00;101144.38;105806;1295;58442;-77
2022/11/27 03:37:27;;;;;;;21.10;10.00;;;;;;;2.66;100.00;101144.18;105754;1292;73790;-78
2022/11/27 03:40:17;;;;;;;22.10;9.40;;;;;;;2.67;100.00;101147.48;105873;1291;67783;-78
2022/11/27 03:43:21;;;;;;;23.40;10.30;;;;;;;2.67;100.00;101148.35;105852;1298;73513;-78
2022/11/27 03:46:22;;;;;;;22.10;9.50;;;;;;;2.69;100.00;101150.38;105744;1284;58601;-78
2022/11/27 03:49:32;;;;;;;21.40;9.10;;;;;;;2.75;100.00;101148.66;105865;1298;60196;-77
2022/11/27 03:52:45;;;;;;;20.90;9.40;;;;;;;2.78;100.00;101145.27;105702;1296;74724;-78
2022/11/27 03:56:08;;;;;;;24.00;9.90;;;;;;;2.82;100.00;101139.35;105867;1295;67486;-77
2022/11/27 03:59:23;;;;;;;22.40;9.80;;;;;;;2.83;100.00;101140.38;105624;1292;72492;-78
2022/11/27 04:02:13;;;;;;;21.30;8.10;;;;;;;2.80;100.00;101146.77;105901;1291;57964;-78
2022/11/27 04:05:01;;;;;;;23.90;10.70;;;;;;;2.77;100.00;101144.95;105862;1292;61126;-78
2022/11/27 04:07:49;;;;;;;25.30;10.70;;;;;;;2.74;100.00;101145.01;105840;1278;74608;-76
2022/11/27 04:10:36;;;;;;;24.30;10.30;;;;;;;2.72;100.00;101145.77;105846;1291;69056;-76
2022/11/27 04:13:24;;;;;;;28.00;11.10;;;;;;;2.72;100.00;101143.30;105842;1292;73746;-76
2022/11/27 04:16:12;;;;;;;25.60;12.30;;;;;;;2.72;100.00;101142.42;105840;1285;57959;-77
2022/11/27 04:19:00;;;;;;;21.60;10.30;;;;;;;2.72;100.00;101140.66;105878;1292;61190;-77
2022/11/27 04:21:48;;;;;;;24.40;10.60;;;;;;;2.70;100.00;101137.75;105852;1294;73781;-77
2022/11/27 04:24:35;;;;;;;25.60;11.10;;;;;;;2.70;100.00;101137.56;105854;1292;67946;-76
2022/11/27 04:27:23;;;;;;;24.90;10.10;;;;;;;2.72;100.00;101136.98;105862;1288;74152;-75
2022/11/27 04:30:12;;;;;;;20.70;9.70;;;;;;;2.73;100.00;101130.13;105856;1290;58006;-77
2022/11/27 04:32:59;;;;;;;22.60;10.90;;;;;;;2.73;100.00;101125.05;105738;1292;59470;-76
2022/11/27 04:35:47;;;;;;;25.00;10.30;;;;;;;2.72;100.00;101129.10;105857;1298;74883;-77
2022/11/27 04:38:35;;;;;;;23.90;11.00;;;;;;;2.73;100.00;101129.09;105717;1293;66845;-76
2022/11/27 04:41:22;;;;;;;24.50;10.10;;;;;;;2.73;100.00;101131.52;105873;1292;72659;-75
2022/11/27 04:44:11;;;;;;;22.70;10.70;;;;;;;2.74;100.00;101125.38;105855;1292;58839;-76
2022/11/27 04:46:59;;;;;;;23.50;9.90;;;;;;;2.75;100.00;101120.27;105861;1292;61672;-76
2022/11/27 04:49:47;;;;;;;22.90;10.20;;;;;;;2.76;100.00;101116.20;105853;1292;73932;-76
2022/11/27 04:52:35;;;;;;;23.20;9.90;;;;;;;2.78;100.00;101124.23;105877;1287;67530;-76
2022/11/27 04:55:22;;;;;;;23.60;10.40;;;;;;;2.78;100.00;101126.51;105882;1295;72334;-77
2022/11/27 04:58:10;;;;;;;23.10;10.40;;;;;;;2.76;100.00;101133.21;105881;1290;57943;-76
2022/11/27 05:00:57;;;;;;;25.70;10.90;;;;;;;2.72;100.00;101139.11;105929;1298;59977;-77
2022/11/27 05:03:47;;;;;;;23.60;10.70;;;;;;;2.67;100.00;101139.06;106040;1284;73584;-74
2022/11/27 05:06:34;;;;;;;27.10;11.70;;;;;;;2.62;100.00;101138.86;105896;1293;67579;-76
2022/11/27 05:09:22;;;;;;;25.10;11.50;;;;;;;2.56;100.00;101141.30;106059;1290;72880;-76
2022/11/27 05:12:10;;;;;;;23.40;10.50;;;;;;;2.49;100.00;101138.50;105865;1293;58922;-76
2022/11/27 05:14:57;;;;;;;29.10;14.20;;;;;;;2.41;100.00;101143.79;105862;1293;61163;-78
2022/11/27 05:17:51;;;;;;;24.60;12.10;;;;;;;2.34;100.00;101138.56;105835;1295;75045;-76
2022/11/27 05:20:38;;;;;;;23.40;11.70;;;;;;;2.27;100.00;101135.57;105718;1287;68658;-76
2022/11/27 05:23:27;;;;;;;23.70;11.70;;;;;;;2.21;100.00;101130.82;105825;1287;73756;-79
2022/11/27 05:26:14;;;;;;;38.30;21.10;;;;;;;2.15;100.00;101125.20;105827;1285;58281;-78
2022/11/27 05:29:02;;;;;;;44.30;23.00;;;;;;;2.10;100.00;101121.66;105854;1282;60092;-76
2022/11/27 05:31:50;;;;;;;65.50;35.70;;;;;;;2.03;100.00;101120.25;105689;1295;74657;-77
2022/11/27 05:34:38;;;;;;;51.60;30.00;;;;;;;1.98;100.00;101120.91;105833;1294;69097;-76
2022/11/27 05:37:27;;;;;;;61.20;34.60;;;;;;;1.93;100.00;101118.40;105823;1298;73938;-76
2022/11/27 05:40:15;;;;;;;76.40;39.80;;;;;;;1.89;100.00;101117.64;105822;1292;58747;-76
2022/11/27 05:43:02;;;;;;;38.30;19.60;;;;;;;1.86;100.00;101111.76;105856;1293;60017;-78
2022/11/27 05:45:50;;;;;;;35.00;17.10;;;;;;;1.84;100.00;101111.63;105848;1290;73754;-75
2022/11/27 05:48:37;;;;;;;31.80;14.00;;;;;;;1.84;100.00;101108.84;105700;1293;186429;-77
2022/11/27 05:51:25;;;;;;;26.60;12.00;;;;;;;1.84;100.00;101112.15;105810;1287;72233;-79
2022/11/27 05:54:12;;;;;;;28.00;12.70;;;;;;;1.85;100.00;101108.98;105802;1292;60139;-78
2022/11/27 05:57:02;;;;;;;23.40;10.20;;;;;;;1.87;100.00;101110.67;105820;1298;61180;-78
2022/11/27 05:59:50;;;;;;;24.80;10.00;;;;;;;1.89;100.00;101113.45;105831;1292;74947;-77
2022/11/27 06:02:38;;;;;;;23.60;10.00;;;;;;;1.90;100.00;101113.59;105839;1291;68712;-78
2022/11/27 06:05:25;;;;;;;19.80;6.90;;;;;;;1.92;100.00;101112.67;105806;1298;73445;-77
2022/11/27 06:08:13;;;;;;;22.80;9.90;;;;;;;1.94;100.00;101114.70;105833;1298;58736;-78
2022/11/27 06:11:15;;;;;;;24.20;10.00;;;;;;;1.96;100.00;101115.02;105858;1284;60333;-77
2022/11/27 06:14:05;;;;;;;26.00;10.20;;;;;;;1.97;100.00;101117.07;105726;1294;73763;-76
2022/11/27 06:16:53;;;;;;;25.30;10.10;;;;;;;2.01;100.00;101110.34;105844;1294;67695;-76
2022/11/27 06:19:42;;;;;;;27.20;10.10;;;;;;;2.05;100.00;101111.27;105847;1290;70086;-79
2022/11/27 06:22:30;;;;;;;25.70;10.40;;;;;;;2.09;100.00;101118.18;105840;1298;58510;-76
2022/11/27 06:25:17;;;;;;;26.90;10.70;;;;;;;2.12;100.00;101129.83;105862;1292;60357;-76
2022/11/27 06:28:05;;;;;;;29.00;10.40;;;;;;;2.14;100.00;101127.52;105820;1291;74778;-80
2022/11/27 06:30:53;;;;;;;23.30;8.50;;;;;;;2.17;100.00;101130.58;105825;1301;69008;-77
2022/11/27 06:33:40;;;;;;;22.50;9.50;;;;;;;2.21;100.00;101125.23;105834;1287;73811;-77
2022/11/27 06:36:35;;;;;;;23.30;9.90;;;;;;;2.25;100.00;101120.59;105698;1295;60495;-77
2022/11/27 06:39:23;;;;;;;20.10;8.60;;;;;;;2.28;100.00;101122.26;105831;1292;59340;-77
2022/11/27 06:42:11;;;;;;;19.80;8.20;;;;;;;2.31;100.00;101120.77;105848;1287;73751;-77
2022/11/27 06:44:59;;;;;;;20.30;9.00;;;;;;;2.33;100.00;101120.18;105856;1287;67673;-76
2022/11/27 06:47:47;;;;;;;20.80;8.20;;;;;;;2.33;100.00;101122.98;105815;1292;73518;-77
2022/11/27 06:50:34;;;;;;;19.80;7.90;;;;;;;2.35;100.00;101124.52;105856;1284;58051;-77
2022/11/27 06:53:22;;;;;;;21.80;8.90;;;;;;;2.37;100.00;101125.87;105833;1290;60690;-78
2022/11/27 06:56:14;;;;;;;22.00;9.30;;;;;;;2.41;100.00;101121.40;105829;1285;73615;-78
2022/11/27 06:59:01;;;;;;;21.80;9.50;;;;;;;2.46;100.00;101122.12;105863;1292;68036;-78
2022/11/27 07:01:48;;;;;;;23.90;9.40;;;;;;;2.50;100.00;101119.38;105698;1291;71369;-78
2022/11/27 07:04:36;;;;;;;19.30;9.10;;;;;;;2.55;100.00;101118.71;105853;1298;59148;-77
2022/11/27 07:07:24;;;;;;;24.40;9.80;;;;;;;2.60;100.00;101122.27;105705;1299;60546;-79
2022/11/27 07:10:12;;;;;;;17.10;7.40;;;;;;;2.61;100.00;101123.80;105836;1291;73811;-78
2022/11/27 07:13:00;;;;;;;16.30;7.30;;;;;;;2.60;100.00;101124.38;105862;1291;69177;-78
2022/11/27 07:15:47;;;;;;;18.10;8.30;;;;;;;2.59;100.00;101125.62;105857;1294;71784;-78
2022/11/27 07:18:41;;;;;;;18.40;8.00;;;;;;;2.59;100.00;101128.44;105105;1295;1002301;-78
2022/11/27 07:21:30;;;;;;;17.60;8.00;;;;;;;2.61;100.00;101128.54;105855;1292;60037;-77
2022/11/27 07:24:19;;;;;;;18.30;8.40;;;;;;;2.64;100.00;101129.17;105114;1298;1002209;-77
2022/11/27 07:27:07;;;;;;;18.70;8.00;;;;;;;2.65;100.00;101130.70;105854;1291;66585;-79
2022/11/27 07:29:55;;;;;;;19.20;7.70;;;;;;;2.70;100.00;101124.09;105850;1291;72539;-77
2022/11/27 07:32:42;;;;;;;20.10;8.90;;;;;;;2.75;100.00;101125.86;105835;1295;59322;-79
2022/11/27 07:35:29;;;;;;;19.90;8.10;;;;;;;2.84;100.00;101125.09;105720;1294;60080;-78
2022/11/27 07:38:17;;;;;;;19.40;8.30;;;;;;;2.93;100.00;101124.84;105094;1296;1002630;-77
2022/11/27 07:41:05;;;;;;;18.60;8.40;;;;;;;2.94;100.00;101121.98;105822;1292;69044;-78
2022/11/27 07:43:53;;;;;;;19.70;8.60;;;;;;;2.96;100.00;101123.88;105825;1299;73912;-80
2022/11/27 07:46:40;;;;;;;21.10;8.50;;;;;;;3.03;100.00;101124.36;105840;1298;58128;-78
2022/11/27 07:49:28;;;;;;;22.50;9.70;;;;;;;3.14;100.00;101125.47;105834;1293;60145;-77
2022/11/27 07:52:16;;;;;;;21.70;10.00;;;;;;;3.24;100.00;101123.92;105828;1292;73973;-77
2022/11/27 07:55:04;;;;;;;20.60;9.40;;;;;;;3.38;100.00;101122.09;105858;1291;67582;-78
2022/11/27 07:57:52;;;;;;;19.30;9.10;;;;;;;3.52;100.00;101123.08;105839;1292;71042;-78
2022/11/27 08:00:40;;;;;;;18.10;9.00;;;;;;;3.63;100.00;101130.25;105843;1295;59298;-80
2022/11/27 08:03:28;;;;;;;27.60;15.00;;;;;;;3.82;100.00;101133.69;105858;1298;59309;-76
2022/11/27 08:06:23;;;;;;;19.50;8.70;;;;;;;3.95;100.00;101138.35;105702;1300;74667;-77
2022/11/27 08:09:10;;;;;;;20.00;8.70;;;;;;;4.03;99.68;101141.98;105828;1292;68651;-75
2022/11/27 08:11:58;;;;;;;19.20;9.30;;;;;;;4.16;99.51;101138.55;105841;1295;72739;-74
2022/11/27 08:14:46;;;;;;;20.20;8.90;;;;;;;4.28;99.02;101130.23;105832;1291;58192;-75
2022/11/27 08:17:34;;;;;;;20.00;8.80;;;;;;;4.45;98.09;101134.73;105715;1295;60087;-76
2022/11/27 08:20:22;;;;;;;19.50;8.70;;;;;;;4.59;97.58;101135.15;105710;1294;73775;-78
2022/11/27 08:23:10;;;;;;;17.60;7.90;;;;;;;4.97;96.98;101135.86;105732;1291;66235;-78
2022/11/27 08:25:57;;;;;;;17.70;8.60;;;;;;;5.23;95.62;101136.11;105725;1294;71311;-76
2022/11/27 08:28:45;;;;;;;17.40;8.10;;;;;;;5.15;93.06;101139.79;105729;1294;57962;-78
2022/11/27 08:31:32;;;;;;;17.20;8.40;;;;;;;5.00;92.81;101141.71;105867;1293;58702;-79
2022/11/27 08:34:20;;;;;;;16.30;6.90;;;;;;;4.86;92.82;101145.60;105875;1293;73665;-79
2022/11/27 08:37:08;;;;;;;18.00;7.30;;;;;;;4.69;92.39;101144.61;105867;1275;66122;-80
2022/11/27 08:39:56;;;;;;;15.50;7.90;;;;;;;4.56;92.97;101146.66;105839;1292;73456;-78
2022/11/27 08:42:43;;;;;;;16.60;7.90;;;;;;;4.45;92.91;101143.88;105844;1292;59254;-79
2022/11/27 08:45:31;;;;;;;16.40;8.00;;;;;;;4.39;93.36;101148.13;105721;1286;60192;-80
2022/11/27 08:48:21;;;;;;;14.90;7.10;;;;;;;4.47;93.63;101146.27;105724;1295;73522;-79
2022/11/27 08:51:14;;;;;;;17.50;8.60;;;;;;;4.51;93.23;101142.78;105632;1298;67680;-81
2022/11/27 08:54:02;;;;;;;20.70;10.50;;;;;;;4.60;93.01;101139.13;105731;1295;72357;-79
2022/11/27 08:56:53;;;;;;;19.50;10.10;;;;;;;4.70;92.70;101131.91;105867;1291;58124;-80
2022/11/27 08:59:40;;;;;;;19.30;8.80;;;;;;;4.85;92.47;101136.33;105859;1295;60082;-79
2022/11/27 09:02:28;;;;;;;15.10;7.60;;;;;;;5.04;91.72;101132.61;105854;1291;73725;-81
2022/11/27 09:05:16;;;;;;;14.20;7.40;;;;;;;5.28;90.92;101138.92;103650;1295;1002896;-79
2022/11/27 09:08:04;;;;;;;15.00;7.10;;;;;;;5.70;90.24;101142.40;105682;1295;72570;-75
2022/11/27 09:10:51;;;;;;;14.40;6.60;;;;;;;5.91;88.53;101141.00;105865;1295;57994;-76
2022/11/27 09:13:40;;;;;;;22.40;11.10;;;;;;;6.09;87.72;101146.98;105886;1290;58094;-75
2022/11/27 09:16:29;;;;;;;25.80;12.70;;;;;;;6.20;86.50;101146.20;105829;1289;73930;-76
2022/11/27 09:19:17;;;;;;;19.10;9.20;;;;;;;6.30;85.57;101146.45;105853;1292;67636;-76
2022/11/27 09:22:05;;;;;;;17.80;8.60;;;;;;;6.42;85.41;101147.53;105822;1295;71303;-76
2022/11/27 09:24:53;;;;;;;16.30;8.40;;;;;;;6.50;85.02;101143.70;105827;1292;59788;-74
2022/11/27 09:27:40;;;;;;;18.40;9.60;;;;;;;6.55;84.09;101141.86;105708;1294;60493;-76
2022/11/27 09:30:28;;;;;;;15.10;8.10;;;;;;;6.97;84.09;101136.13;105719;1285;74661;-76
2022/11/27 09:33:16;;;;;;;15.90;8.40;;;;;;;7.21;82.56;101139.83;105867;1289;66261;-75
2022/11/27 09:36:24;;;;;;;18.30;9.70;;;;;;;7.86;81.14;101139.35;105716;1295;72330;-82
2022/11/27 09:39:14;;;;;;;66.50;39.40;;;;;;;8.06;83.09;101140.48;105671;1293;58019;-82
2022/11/27 09:42:05;;;;;;;23.80;13.20;;;;;;;8.46;79.54;101136.56;105766;1295;60082;-81
2022/11/27 09:44:58;;;;;;;21.50;11.60;;;;;;;9.07;77.24;101136.19;105712;1294;73776;-81
2022/11/27 09:47:50;;;;;;;16.90;10.40;;;;;;;9.44;74.69;101131.14;105687;1293;68043;-78
2022/11/27 09:50:49;;;;;;;15.90;8.80;;;;;;;9.31;73.32;101130.43;105696;1295;72371;-80
2022/11/27 09:53:51;;;;;;;18.70;9.90;;;;;;;9.05;73.64;101131.14;105685;1295;58064;-80
2022/11/27 09:56:41;;;;;;;17.90;9.10;;;;;;;8.85;73.57;101133.98;105563;1301;60305;-78
2022/11/27 09:59:44;;;;;;;21.60;10.80;;;;;;;8.60;73.30;101132.27;105695;1295;73607;-78
2022/11/27 10:02:34;;;;;;;21.80;10.00;;;;;;;8.29;74.31;101135.27;105700;1287;66352;-78
2022/11/27 10:05:30;;;;;;;20.80;10.50;;;;;;;8.10;75.09;101133.93;105661;1287;72596;-78
2022/11/27 10:08:38;;;;;;;18.70;9.70;;;;;;;7.94;75.61;101131.02;105759;1294;58093;-78
2022/11/27 10:11:51;;;;;;;24.20;11.20;;;;;;;7.80;76.17;101126.41;105783;1295;58513;-80
2022/11/27 10:14:58;;;;;;;21.00;10.20;;;;;;;7.80;76.93;101123.58;105764;1288;75095;-79
2022/11/27 10:18:08;;;;;;;22.10;11.40;;;;;;;7.89;76.98;101121.23;105693;1294;67899;-81
2022/11/27 10:21:10;;;;;;;22.90;11.90;;;;;;;8.08;77.20;101114.73;105692;1295;71235;-79
2022/11/27 10:24:11;;;;;;;21.20;10.90;;;;;;;8.50;76.62;101112.85;105745;1287;58257;-78
2022/11/27 10:26:59;;;;;;;18.10;10.40;;;;;;;8.56;75.36;101112.49;105722;1294;59334;-80
2022/11/27 10:29:53;;;;;;;21.50;11.10;;;;;;;8.44;75.60;101107.83;105704;1294;73449;-80
2022/11/27 10:32:45;;;;;;;24.50;12.50;;;;;;;8.26;75.67;101110.99;105702;1301;67781;-78
2022/11/27 10:35:44;;;;;;;25.00;12.20;;;;;;;8.03;76.33;101108.27;105720;1295;72340;-79
2022/11/27 10:38:37;;;;;;;22.00;11.10;;;;;;;7.85;76.83;101108.49;105791;1295;58270;-77
2022/11/27 10:41:36;;;;;;;23.60;12.70;;;;;;;7.55;77.57;101104.45;105718;1293;61537;-80
2022/11/27 10:44:46;;;;;;;25.40;12.20;;;;;;;7.32;78.62;101101.67;105736;1293;73899;-79
2022/11/27 10:47:37;;;;;;;24.30;12.50;;;;;;;7.20;80.48;101102.95;105720;1284;68085;-78
2022/11/27 10:50:24;;;;;;;23.60;12.20;;;;;;;7.17;81.33;101101.85;105712;1291;73531;-79
2022/11/27 10:53:31;;;;;;;23.40;12.40;;;;;;;7.13;81.37;101099.23;105840;1292;58846;-78
2022/11/27 10:56:43;;;;;;;23.70;11.60;;;;;;;7.09;81.53;101098.54;105869;1292;60015;-79
2022/11/27 10:59:43;;;;;;;24.20;10.50;;;;;;;7.05;81.52;101097.65;105894;1295;72486;-78
2022/11/27 11:02:36;;;;;;;22.00;11.60;;;;;;;7.07;82.04;101091.74;105860;1292;68298;-79
2022/11/27 11:05:26;;;;;;;20.10;10.10;;;;;;;7.09;81.58;101094.30;105886;1292;72263;-77
2022/11/27 11:08:35;;;;;;;18.40;9.00;;;;;;;7.07;81.82;101091.71;105714;1292;58078;-80
2022/11/27 11:11:25;;;;;;;16.90;8.40;;;;;;;7.15;82.16;101084.65;105852;1292;60005;-79
2022/11/27 11:14:25;;;;;;;16.50;8.40;;;;;;;7.26;82.18;101074.40;105675;1292;73924;-79
2022/11/27 11:17:17;;;;;;;18.70;8.80;;;;;;;7.40;81.64;101077.47;105882;1290;66744;-78
2022/11/27 11:20:21;;;;;;;18.10;8.90;;;;;;;7.47;81.52;101070.05;105715;1295;72672;-78
2022/11/27 11:23:22;;;;;;;20.80;10.10;;;;;;;7.58;81.57;101070.42;105713;1292;59036;-79
2022/11/27 11:26:30;;;;;;;17.70;9.90;;;;;;;7.63;80.98;101070.34;105727;1295;60036;-81
2022/11/27 11:29:36;;;;;;;17.10;8.60;;;;;;;7.75;80.81;101072.94;105720;1293;72191;-79
2022/11/27 11:32:39;;;;;;;17.20;8.90;;;;;;;7.84;80.38;101072.48;105857;1287;67752;-80
2022/11/27 11:35:34;;;;;;;16.10;8.40;;;;;;;8.39;80.84;101074.98;105725;1284;71793;-80
2022/11/27 11:38:31;;;;;;;14.70;7.40;;;;;;;9.87;78.11;101071.42;105733;1288;58077;-79
2022/11/27 11:41:19;;;;;;;15.80;8.20;;;;;;;11.11;71.84;101057.36;105862;1290;60254;-80
2022/11/27 11:44:24;;;;;;;16.00;8.40;;;;;;;11.84;69.04;101055.42;105860;1294;73532;-82
2022/11/27 11:47:18;;;;;;;14.10;7.80;;;;;;;11.81;65.72;101059.38;105764;1295;67832;-79
2022/11/27 11:50:12;;;;;;;15.70;8.10;;;;;;;11.98;65.64;101060.36;105727;1287;72759;-80
2022/11/27 11:53:39;;;;;;;15.30;8.70;;;;;;;11.85;64.62;101057.34;105668;1292;58220;-81
2022/11/27 11:56:43;;;;;;;15.60;8.50;;;;;;;11.58;64.58;101066.20;105712;1288;59000;-79
2022/11/27 11:59:50;;;;;;;16.10;7.60;;;;;;;11.14;64.08;101064.23;105717;1288;72164;-81
2022/11/27 12:03:18;;;;;;;15.70;8.20;;;;;;;10.81;65.59;101060.98;105854;1292;65615;-79
2022/11/27 12:06:35;;;;;;;16.10;8.30;;;;;;;10.57;66.29;101060.05;105860;1285;72557;-80
2022/11/27 12:09:50;;;;;;;17.40;8.80;;;;;;;10.30;66.77;101062.51;105705;1295;58088;-81
2022/11/27 12:13:13;;;;;;;18.20;9.20;;;;;;;10.43;66.82;101058.23;105762;1292;59993;-79
2022/11/27 12:16:06;;;;;;;18.40;9.80;;;;;;;10.93;66.14;101045.36;105836;1292;73727;-78
2022/11/27 12:19:34;;;;;;;20.80;10.10;;;;;;;11.41;65.07;101044.40;105861;1288;66233;-79
2022/11/27 12:22:43;;;;;;;20.60;10.30;;;;;;;11.43;63.65;101039.98;105725;1290;72374;-82
2022/11/27 12:26:20;;;;;;;20.30;10.10;;;;;;;10.93;63.74;101034.15;105830;1292;58028;-80
2022/11/27 12:29:23;;;;;;;22.10;10.80;;;;;;;10.43;65.24;101027.34;105759;1292;60022;-80
2022/11/27 12:32:32;;;;;;;20.30;9.60;;;;;;;10.06;66.02;101034.86;105835;1284;72725;-77
2022/11/27 12:35:40;;;;;;;18.10;9.10;;;;;;;9.64;66.51;101034.54;105830;1285;67935;-75
2022/11/27 12:38:56;;;;;;;19.70;9.70;;;;;;;9.14;67.69;101030.27;105827;1292;72659;-74
2022/11/27 12:41:55;;;;;;;19.30;10.20;;;;;;;8.76;69.04;101030.58;105708;1292;57992;-75
2022/11/27 12:45:21;;;;;;;21.00;10.30;;;;;;;8.49;70.30;101031.52;105881;1293;60014;-77
2022/11/27 12:48:41;;;;;;;22.00;11.10;;;;;;;8.22;71.36;101038.56;105822;1298;72869;-79
2022/11/27 12:52:27;;;;;;;21.50;9.90;;;;;;;7.97;72.23;101037.04;105741;1285;66570;-79
2022/11/27 12:55:24;;;;;;;22.60;10.40;;;;;;;7.67;73.77;101040.11;105171;1307;71295;-76
2022/11/27 12:58:23;;;;;;;22.40;10.80;;;;;;;7.44;74.52;101039.48;105013;1305;58721;-79
2022/11/27 13:01:32;;;;;;;23.70;11.40;;;;;;;7.25;75.50;101036.55;105028;1300;58730;-77
2022/11/27 13:04:35;;;;;;;31.20;15.40;;;;;;;6.98;76.31;101036.94;105189;1300;73572;-80
2022/11/27 13:07:50;;;;;;;37.70;19.00;;;;;;;6.69;77.64;101042.15;105184;1296;67629;-80
2022/11/27 13:10:46;;;;;;;35.50;18.60;;;;;;;6.44;78.72;101042.73;105106;1293;72392;-79